Time;durP1;ratioP1;P1;durP2;ratioP2;P2;SDS_P1;SDS_P2;PMS_P1;PMS_P2;Temp;Humidity;BMP_temperature;BMP_pressure;BME280_temperature;BME280_humidity;BME280_pressure;Samples;Min_cycle;Max_cycle;Signal;HPM_P1;HPM_P2
2021/09/04 00:01:54;;;;;;;18.85;12.43;;;12.90;96.50;;;;;;4996529;28;20069;-55
2021/09/04 00:04:20;;;;;;;22.23;15.02;;;12.90;96.50;;;;;;4992224;28;20045;-52
2021/09/04 00:06:46;;;;;;;22.25;14.70;;;12.90;96.90;;;;;;4962548;28;20470;-55
2021/09/04 00:09:13;;;;;;;21.98;13.93;;;13.00;97.00;;;;;;4991950;28;20046;-54
2021/09/04 00:11:38;;;;;;;23.17;13.57;;;13.00;96.90;;;;;;4974666;28;20050;-54
2021/09/04 00:14:05;;;;;;;25.60;14.98;;;13.10;96.90;;;;;;4993155;28;20506;-53
2021/09/04 00:16:31;;;;;;;26.70;14.35;;;13.20;97.10;;;;;;4945517;28;20043;-55
2021/09/04 00:18:56;;;;;;;28.52;14.32;;;13.30;97.20;;;;;;4992187;28;20043;-54
2021/09/04 00:21:22;;;;;;;28.13;13.88;;;13.40;97.00;;;;;;4990548;28;20045;-54
2021/09/04 00:23:47;;;;;;;24.60;14.73;;;13.40;96.80;;;;;;4964033;28;20559;-55
2021/09/04 00:26:18;;;;;;;26.13;14.52;;;13.40;96.90;;;;;;4977100;28;20054;-54
2021/09/04 00:28:43;;;;;;;23.10;13.65;;;13.40;96.80;;;;;;4989236;28;20096;-57
2021/09/04 00:31:11;;;;;;;22.92;14.13;;;13.40;96.80;;;;;;4992295;28;20414;-54
2021/09/04 00:33:36;;;;;;;28.65;14.00;;;13.50;96.60;;;;;;4985159;28;20042;-55
2021/09/04 00:36:03;;;;;;;25.13;13.13;;;13.60;96.40;;;;;;4986650;28;20053;-54
2021/09/04 00:38:29;;;;;;;22.92;13.40;;;13.60;96.30;;;;;;4996987;28;20042;-56
2021/09/04 00:40:54;;;;;;;24.45;13.88;;;13.60;96.30;;;;;;4997192;28;20034;-54
2021/09/04 00:43:20;;;;;;;23.95;14.10;;;13.50;96.40;;;;;;4961855;28;20042;-51
2021/09/04 00:45:46;;;;;;;22.60;14.18;;;13.50;96.50;;;;;;4995945;28;20094;-57
2021/09/04 00:48:11;;;;;;;21.92;13.80;;;13.50;96.50;;;;;;4984599;28;20065;-58
2021/09/04 00:50:37;;;;;;;23.48;14.10;;;13.50;96.60;;;;;;4996009;28;20038;-58
2021/09/04 00:53:04;;;;;;;25.48;13.88;;;13.50;96.50;;;;;;4977968;28;20116;-58
2021/09/04 00:55:30;;;;;;;23.58;13.00;;;13.60;96.70;;;;;;4961536;28;20042;-57
2021/09/04 00:57:56;;;;;;;25.38;14.48;;;13.60;96.60;;;;;;4976912;28;20042;-58
2021/09/04 01:00:22;;;;;;;23.58;13.95;;;13.60;96.60;;;;;;4963402;28;20377;-58
2021/09/04 01:02:48;;;;;;;25.40;14.70;;;13.70;96.50;;;;;;4994329;28;20038;-58
2021/09/04 01:05:14;;;;;;;22.85;14.27;;;13.70;96.40;;;;;;4996022;28;20034;-58
2021/09/04 01:07:43;;;;;;;25.25;14.05;;;13.70;96.50;;;;;;4996888;28;20043;-58
2021/09/04 01:10:10;;;;;;;22.50;13.98;;;13.70;96.40;;;;;;4998475;28;20477;-58
2021/09/04 01:12:36;;;;;;;24.40;14.10;;;13.70;96.50;;;;;;4998214;28;20055;-52
2021/09/04 01:15:04;;;;;;;24.10;14.30;;;13.70;96.50;;;;;;4992676;28;20132;-53
2021/09/04 01:17:29;;;;;;;24.30;14.68;;;13.80;96.30;;;;;;4990861;28;20042;-52
2021/09/04 01:19:55;;;;;;;23.25;14.10;;;13.80;96.30;;;;;;4966870;28;20084;-55
2021/09/04 01:22:22;;;;;;;27.80;14.38;;;13.70;96.40;;;;;;4965451;28;20031;-53
2021/09/04 01:24:49;;;;;;;25.83;14.23;;;13.70;96.60;;;;;;4976541;28;20034;-51
2021/09/04 01:27:18;;;;;;;25.00;13.68;;;13.80;96.50;;;;;;4994283;28;20545;-52
2021/09/04 01:29:45;;;;;;;25.38;13.88;;;13.80;96.50;;;;;;4991743;28;20046;-55
2021/09/04 01:32:10;;;;;;;27.83;14.57;;;13.80;96.30;;;;;;4981553;28;20050;-55
2021/09/04 01:34:37;;;;;;;22.33;13.63;;;13.80;96.20;;;;;;4976682;28;20053;-53
2021/09/04 01:37:03;;;;;;;24.20;13.80;;;13.80;96.40;;;;;;4989960;28;20175;-50
2021/09/04 01:39:28;;;;;;;24.58;14.60;;;13.90;96.30;;;;;;4958545;28;20074;-50
2021/09/04 01:41:54;;;;;;;26.60;14.57;;;13.80;96.20;;;;;;4990070;28;20038;-53
2021/09/04 01:44:20;;;;;;;23.33;14.23;;;13.80;96.40;;;;;;4977781;28;20046;-51
2021/09/04 01:46:45;;;;;;;22.60;13.60;;;13.80;96.40;;;;;;4983093;28;20042;-49
2021/09/04 01:49:11;;;;;;;24.75;13.40;;;13.80;96.40;;;;;;4994930;28;20157;-50
2021/09/04 01:51:36;;;;;;;22.90;14.38;;;13.80;96.40;;;;;;4961058;28;20038;-54
2021/09/04 01:54:02;;;;;;;21.98;13.20;;;13.90;96.30;;;;;;4994923;28;20050;-49
2021/09/04 01:56:27;;;;;;;24.20;13.30;;;13.90;96.20;;;;;;4995055;28;20051;-49
2021/09/04 01:58:53;;;;;;;21.08;13.15;;;13.90;96.40;;;;;;4987986;28;20038;-57
2021/09/04 02:01:20;;;;;;;23.95;12.75;;;13.80;96.10;;;;;;4987595;28;20050;-58
2021/09/04 02:03:45;;;;;;;17.60;12.65;;;13.80;96.10;;;;;;4994275;28;20049;-58
2021/09/04 02:06:11;;;;;;;23.17;12.85;;;13.90;95.80;;;;;;4987827;28;20046;-57
2021/09/04 02:08:36;;;;;;;23.80;12.48;;;13.90;96.00;;;;;;4987136;28;20042;-58
2021/09/04 02:11:03;;;;;;;23.17;12.68;;;13.90;96.00;;;;;;4964392;28;20043;-57
2021/09/04 02:13:29;;;;;;;19.25;12.57;;;13.90;95.80;;;;;;4976281;28;20230;-57
2021/09/04 02:15:55;;;;;;;19.98;12.30;;;13.90;95.90;;;;;;4991097;28;20080;-57
2021/09/04 02:18:21;;;;;;;21.00;12.25;;;13.90;95.90;;;;;;4993201;28;20062;-52
2021/09/04 02:20:48;;;;;;;21.02;12.25;;;13.90;96.00;;;;;;4985075;28;20885;-52
2021/09/04 02:23:14;;;;;;;18.63;11.65;;;14.00;95.60;;;;;;4991254;28;20498;-54
2021/09/04 02:25:40;;;;;;;21.05;12.18;;;13.90;95.70;;;;;;4967274;28;20049;-52
2021/09/04 02:28:05;;;;;;;19.08;11.60;;;14.00;95.70;;;;;;4969562;28;20038;-55
2021/09/04 02:30:31;;;;;;;19.45;11.02;;;14.00;95.70;;;;;;4992674;28;20157;-55
2021/09/04 02:32:57;;;;;;;17.55;10.98;;;14.00;95.50;;;;;;4993318;28;20503;-55
2021/09/04 02:35:24;;;;;;;18.90;10.80;;;14.10;95.10;;;;;;4993124;28;20035;-54
2021/09/04 02:37:49;;;;;;;20.27;10.65;;;14.20;94.90;;;;;;4993066;28;20113;-55
2021/09/04 02:40:15;;;;;;;18.60;11.52;;;14.10;95.00;;;;;;4960188;28;20170;-51
2021/09/04 02:42:41;;;;;;;22.08;11.63;;;14.10;95.10;;;;;;4993549;28;20038;-51
2021/09/04 02:45:06;;;;;;;20.52;10.82;;;14.10;95.30;;;;;;4993147;28;20039;-50
2021/09/04 02:47:35;;;;;;;18.40;11.05;;;14.10;95.40;;;;;;4963107;28;20396;-50
2021/09/04 02:50:03;;;;;;;20.58;10.77;;;14.10;95.30;;;;;;4954424;28;20046;-51
2021/09/04 02:52:28;;;;;;;17.15;10.88;;;14.10;95.60;;;;;;4989907;28;20038;-50
2021/09/04 02:54:54;;;;;;;17.88;10.32;;;14.00;95.70;;;;;;4984283;28;20041;-49
2021/09/04 02:57:19;;;;;;;17.65;9.85;;;14.10;95.60;;;;;;4992675;28;20050;-51
2021/09/04 02:59:45;;;;;;;21.83;10.27;;;14.10;95.30;;;;;;4992230;28;20164;-50
2021/09/04 03:02:11;;;;;;;17.83;9.88;;;14.10;95.50;;;;;;4975275;28;20042;-51
2021/09/04 03:04:36;;;;;;;15.75;8.43;;;14.20;95.40;;;;;;4991619;28;20117;-52
2021/09/04 03:07:02;;;;;;;16.65;8.98;;;14.20;95.20;;;;;;4992366;28;20074;-61
2021/09/04 03:09:28;;;;;;;15.95;9.02;;;14.10;95.10;;;;;;4992313;28;20092;-49
2021/09/04 03:11:53;;;;;;;16.48;8.60;;;14.10;95.10;;;;;;4992389;28;20041;-49
2021/09/04 03:14:19;;;;;;;13.63;8.23;;;14.10;95.00;;;;;;4974265;28;20041;-55
2021/09/04 03:16:44;;;;;;;18.65;8.20;;;14.20;94.70;;;;;;4991908;28;20034;-54
2021/09/04 03:19:10;;;;;;;14.70;7.55;;;14.20;94.80;;;;;;4992015;28;20555;-50
2021/09/04 03:21:35;;;;;;;13.85;7.97;;;14.20;94.60;;;;;;4974716;28;20376;-49
2021/09/04 03:24:01;;;;;;;13.10;7.50;;;14.20;94.40;;;;;;4991182;28;20084;-52
2021/09/04 03:26:27;;;;;;;14.35;7.32;;;14.20;94.60;;;;;;4982686;28;20038;-53
2021/09/04 03:28:52;;;;;;;14.10;7.25;;;14.10;94.70;;;;;;4974619;28;20081;-54
2021/09/04 03:31:18;;;;;;;9.98;5.85;;;14.10;94.70;;;;;;4991938;28;20035;-51
2021/09/04 03:33:44;;;;;;;12.25;7.15;;;14.20;94.40;;;;;;4991763;28;20081;-50
2021/09/04 03:36:09;;;;;;;14.15;7.18;;;14.20;94.30;;;;;;4974064;28;20415;-53
2021/09/04 03:38:35;;;;;;;13.10;7.00;;;14.20;94.20;;;;;;4974557;28;20057;-53
2021/09/04 03:41:00;;;;;;;13.77;6.45;;;14.20;94.10;;;;;;4991755;28;20049;-49
2021/09/04 03:43:26;;;;;;;15.73;6.82;;;14.20;94.00;;;;;;4991513;28;20031;-50
2021/09/04 03:45:51;;;;;;;13.57;6.80;;;14.10;94.20;;;;;;4974276;28;20458;-57
2021/09/04 03:48:17;;;;;;;15.30;7.10;;;14.10;94.50;;;;;;4991288;28;20046;-57
2021/09/04 03:50:43;;;;;;;13.73;6.93;;;14.10;94.40;;;;;;4974077;28;20037;-58
2021/09/04 03:53:08;;;;;;;12.60;6.38;;;14.10;94.50;;;;;;4974742;28;20050;-57
2021/09/04 03:55:34;;;;;;;11.13;5.88;;;14.10;94.60;;;;;;4991321;28;20088;-58
2021/09/04 03:58:00;;;;;;;12.73;6.97;;;14.20;94.20;;;;;;4991510;28;20046;-58
2021/09/04 04:00:26;;;;;;;11.10;6.25;;;14.10;94.20;;;;;;4991458;28;20027;-57
2021/09/04 04:02:52;;;;;;;14.30;6.68;;;14.10;94.40;;;;;;4991874;28;20113;-57
2021/09/04 04:05:17;;;;;;;12.77;6.50;;;14.20;94.10;;;;;;4991035;28;20414;-57
2021/09/04 04:07:44;;;;;;;14.43;7.00;;;14.10;94.30;;;;;;4991708;28;20089;-58
2021/09/04 04:10:10;;;;;;;10.25;6.47;;;14.10;94.30;;;;;;4992397;28;20129;-58
2021/09/04 04:12:36;;;;;;;14.75;7.03;;;14.10;94.20;;;;;;4974295;28;20058;-58
2021/09/04 04:15:02;;;;;;;15.48;6.88;;;14.10;94.30;;;;;;4957634;28;20180;-57
2021/09/04 04:17:30;;;;;;;14.10;6.60;;;14.10;94.30;;;;;;4973270;28;20062;-58
2021/09/04 04:19:55;;;;;;;15.75;7.40;;;14.10;94.30;;;;;;4954617;28;20519;-58
2021/09/04 04:22:21;;;;;;;11.40;7.65;;;14.10;94.50;;;;;;4984807;28;20219;-56
2021/09/04 04:24:47;;;;;;;14.55;6.97;;;14.10;94.70;;;;;;4991356;28;20041;-56
2021/09/04 04:27:12;;;;;;;12.85;6.47;;;14.10;94.50;;;;;;4991694;28;20053;-56
2021/09/04 04:29:38;;;;;;;10.80;6.88;;;14.10;94.60;;;;;;4974198;28;20046;-55
2021/09/04 04:32:03;;;;;;;12.50;6.57;;;14.10;94.60;;;;;;4991413;28;20374;-56
2021/09/04 04:34:29;;;;;;;13.27;6.50;;;14.10;94.70;;;;;;4990511;28;20378;-56
2021/09/04 04:36:55;;;;;;;15.60;6.63;;;14.10;94.80;;;;;;4958207;28;20042;-56
2021/09/04 04:39:20;;;;;;;11.10;6.20;;;14.10;94.80;;;;;;4957534;28;20047;-56
2021/09/04 04:41:46;;;;;;;12.55;6.35;;;14.10;94.70;;;;;;4957315;28;20081;-53
2021/09/04 04:44:12;;;;;;;14.00;6.57;;;14.10;94.80;;;;;;4960495;28;20118;-55
2021/09/04 04:46:37;;;;;;;15.18;6.90;;;14.10;94.90;;;;;;4991361;28;20561;-55
2021/09/04 04:49:03;;;;;;;11.73;6.80;;;14.20;94.20;;;;;;4956840;28;20554;-55
2021/09/04 04:51:28;;;;;;;13.10;6.50;;;14.20;94.30;;;;;;4981322;28;20106;-56
2021/09/04 04:53:54;;;;;;;14.63;6.47;;;14.10;94.40;;;;;;4985139;28;20367;-56
2021/09/04 04:56:19;;;;;;;15.52;6.38;;;14.10;94.30;;;;;;4979380;28;20133;-56
2021/09/04 04:58:45;;;;;;;13.50;6.70;;;14.10;94.30;;;;;;4977379;28;20042;-56
2021/09/04 05:01:10;;;;;;;12.88;6.85;;;14.20;94.30;;;;;;4973806;28;20081;-56
2021/09/04 05:03:36;;;;;;;12.65;6.38;;;14.20;94.40;;;;;;4990731;28;20403;-56
2021/09/04 05:06:08;;;;;;;9.35;6.50;;;14.10;94.50;;;;;;4991436;28;20509;-58
2021/09/04 05:08:33;;;;;;;12.85;6.50;;;14.10;94.70;;;;;;4973897;28;20169;-56
2021/09/04 05:10:59;;;;;;;13.60;6.53;;;14.10;94.80;;;;;;4990834;28;20550;-56
2021/09/04 05:13:24;;;;;;;10.80;6.90;;;14.10;94.60;;;;;;4991090;28;20100;-55
2021/09/04 05:15:50;;;;;;;12.32;6.32;;;14.10;94.60;;;;;;4957425;28;20039;-54
2021/09/04 05:18:16;;;;;;;11.60;6.15;;;14.10;94.70;;;;;;4961428;28;20046;-56
2021/09/04 05:20:46;;;;;;;15.60;5.88;;;14.10;94.60;;;;;;4994402;28;20038;-56
2021/09/04 05:23:12;;;;;;;10.13;5.60;;;14.10;94.60;;;;;;4977393;28;20049;-55
2021/09/04 05:25:38;;;;;;;12.38;6.00;;;14.20;94.40;;;;;;4994342;28;20407;-55
2021/09/04 05:28:05;;;;;;;10.65;5.35;;;14.10;94.40;;;;;;4994104;28;20077;-55
2021/09/04 05:30:30;;;;;;;11.45;5.70;;;14.20;94.20;;;;;;4994758;28;20046;-56
2021/09/04 05:32:56;;;;;;;10.25;5.55;;;14.10;94.40;;;;;;4976528;28;20125;-56
2021/09/04 05:35:22;;;;;;;11.25;5.75;;;14.20;94.40;;;;;;4976343;28;20101;-56
2021/09/04 05:37:47;;;;;;;9.55;4.93;;;14.20;94.50;;;;;;4976494;28;20116;-58
2021/09/04 05:40:13;;;;;;;12.77;5.78;;;14.10;94.30;;;;;;4994726;28;20066;-58
2021/09/04 05:42:39;;;;;;;13.13;5.47;;;14.20;94.10;;;;;;4993095;28;20038;-58
2021/09/04 05:45:08;;;;;;;12.55;5.30;;;14.30;93.50;;;;;;4976473;28;20119;-53
2021/09/04 05:47:34;;;;;;;10.60;5.15;;;14.40;93.20;;;;;;4974445;28;20043;-55
2021/09/04 05:49:59;;;;;;;14.65;5.28;;;14.30;93.40;;;;;;4986551;28;20247;-53
2021/09/04 05:52:25;;;;;;;9.15;5.15;;;14.30;93.80;;;;;;4993679;28;20064;-54
2021/09/04 05:54:51;;;;;;;9.05;5.30;;;14.30;93.90;;;;;;4993619;28;20137;-53
2021/09/04 05:57:18;;;;;;;13.70;5.60;;;14.40;93.40;;;;;;4960122;28;20045;-53
2021/09/04 05:59:43;;;;;;;11.48;5.50;;;14.40;93.10;;;;;;4976899;28;20034;-52
2021/09/04 06:02:09;;;;;;;12.20;5.43;;;14.50;92.70;;;;;;4993500;28;20128;-55
2021/09/04 06:04:36;;;;;;;10.80;5.30;;;14.50;92.80;;;;;;4987506;28;20039;-56
2021/09/04 06:07:02;;;;;;;12.45;5.05;;;14.40;93.00;;;;;;4968965;28;20042;-56
2021/09/04 06:09:28;;;;;;;9.35;5.47;;;14.40;93.00;;;;;;4975825;28;20042;-55
2021/09/04 06:11:53;;;;;;;11.95;5.40;;;14.40;93.30;;;;;;4993693;28;20379;-55
2021/09/04 06:14:22;;;;;;;10.07;5.05;;;14.30;93.50;;;;;;4993004;28;20050;-52
2021/09/04 06:16:48;;;;;;;10.05;5.18;;;14.40;93.30;;;;;;4994735;28;20054;-56
2021/09/04 06:19:13;;;;;;;9.23;4.75;;;14.40;93.30;;;;;;4993415;28;20045;-56
2021/09/04 06:21:39;;;;;;;16.38;5.20;;;14.40;93.20;;;;;;4975267;28;20605;-56
2021/09/04 06:24:06;;;;;;;8.57;4.63;;;14.50;92.70;;;;;;4942687;28;20039;-56
2021/09/04 06:26:32;;;;;;;8.50;4.70;;;14.50;92.80;;;;;;4992220;28;20038;-55
2021/09/04 06:28:58;;;;;;;10.68;5.03;;;14.60;92.40;;;;;;4992987;28;20046;-56
2021/09/04 06:31:24;;;;;;;11.98;5.35;;;14.50;92.80;;;;;;4966016;28;20030;-57
2021/09/04 06:33:49;;;;;;;9.43;4.78;;;14.50;93.00;;;;;;4993293;28;20041;-55
2021/09/04 06:36:15;;;;;;;9.95;5.57;;;14.50;92.90;;;;;;4992692;28;20046;-56
2021/09/04 06:38:41;;;;;;;9.13;5.05;;;14.50;93.20;;;;;;4992506;28;20041;-56
2021/09/04 06:41:07;;;;;;;13.93;5.32;;;14.50;93.40;;;;;;4993481;28;20402;-55
2021/09/04 06:43:33;;;;;;;10.30;5.15;;;14.50;93.20;;;;;;4992631;28;20062;-53
2021/09/04 06:45:59;;;;;;;10.07;5.13;;;14.60;92.40;;;;;;4992330;28;20384;-53
2021/09/04 06:48:24;;;;;;;16.58;5.38;;;14.60;92.10;;;;;;4992908;28;20065;-53
2021/09/04 06:50:50;;;;;;;9.35;5.00;;;14.60;92.20;;;;;;4992597;28;20080;-56
2021/09/04 06:53:15;;;;;;;10.52;5.22;;;14.60;92.20;;;;;;4992681;28;20125;-54
2021/09/04 06:55:41;;;;;;;9.45;4.70;;;14.60;92.10;;;;;;4978122;28;20042;-56
2021/09/04 06:58:06;;;;;;;10.57;4.78;;;14.60;91.80;;;;;;4992422;28;20045;-52
2021/09/04 07:00:32;;;;;;;8.45;4.32;;;14.60;91.90;;;;;;4992019;28;20041;-54
2021/09/04 07:02:57;;;;;;;10.27;4.50;;;14.60;91.90;;;;;;4968874;28;20043;-53
2021/09/04 07:05:23;;;;;;;13.35;4.57;;;14.70;91.90;;;;;;4985380;28;20499;-53
2021/09/04 07:07:51;;;;;;;8.65;4.70;;;14.70;91.70;;;;;;4992771;28;20121;-52
2021/09/04 07:10:18;;;;;;;10.20;4.32;;;14.70;92.00;;;;;;4975747;28;20117;-53
2021/09/04 07:12:43;;;;;;;9.95;5.38;;;14.80;91.70;;;;;;4992425;28;20038;-56
2021/09/04 07:15:09;;;;;;;12.02;5.20;;;14.80;91.60;;;;;;4991644;28;20113;-53
2021/09/04 07:17:35;;;;;;;11.52;4.93;;;14.70;91.90;;;;;;4991667;28;20116;-55
2021/09/04 07:20:01;;;;;;;9.05;4.45;;;14.70;92.30;;;;;;4992594;28;20479;-56
2021/09/04 07:22:27;;;;;;;14.93;5.25;;;14.80;92.30;;;;;;4992418;28;20041;-53
2021/09/04 07:24:52;;;;;;;9.98;4.40;;;14.80;92.10;;;;;;4991629;28;20042;-54
2021/09/04 07:27:18;;;;;;;10.43;4.97;;;14.90;91.50;;;;;;4974662;28;20053;-53
2021/09/04 07:29:43;;;;;;;11.82;4.38;;;14.90;91.30;;;;;;4991262;28;20113;-53
2021/09/04 07:32:09;;;;;;;9.45;4.40;;;15.00;90.70;;;;;;4991483;28;20507;-53
2021/09/04 07:34:34;;;;;;;12.82;5.00;;;14.90;91.00;;;;;;4991166;28;20049;-56
2021/09/04 07:37:00;;;;;;;11.50;4.70;;;14.90;91.10;;;;;;4974241;28;20069;-53
2021/09/04 07:39:25;;;;;;;11.80;5.10;;;14.90;91.30;;;;;;4974576;28;20493;-53
2021/09/04 07:41:51;;;;;;;11.40;5.00;;;14.90;91.60;;;;;;4992226;28;20042;-56
2021/09/04 07:44:16;;;;;;;11.40;4.93;;;14.90;91.20;;;;;;4974381;28;20042;-55
2021/09/04 07:46:42;;;;;;;16.20;5.20;;;14.90;91.00;;;;;;4988123;28;20047;-55
2021/09/04 07:49:07;;;;;;;9.75;4.18;;;15.00;91.20;;;;;;4991074;28;20053;-54
2021/09/04 07:51:33;;;;;;;9.77;4.65;;;15.10;90.70;;;;;;4987390;28;20065;-54
2021/09/04 07:53:58;;;;;;;11.15;4.90;;;15.10;90.90;;;;;;4991761;28;20046;-53
2021/09/04 07:56:24;;;;;;;9.82;4.60;;;15.00;91.20;;;;;;4991104;28;20111;-51
2021/09/04 07:58:49;;;;;;;9.95;4.57;;;15.00;91.30;;;;;;4986427;28;20035;-56
2021/09/04 08:01:15;;;;;;;11.95;5.15;;;15.10;90.90;;;;;;4991355;28;20047;-56
2021/09/04 08:03:41;;;;;;;10.18;5.00;;;15.20;90.50;;;;;;4991568;28;20125;-49
2021/09/04 08:06:06;;;;;;;8.68;4.38;;;15.20;90.30;;;;;;4986596;28;20049;-53
2021/09/04 08:08:32;;;;;;;10.63;4.40;;;15.10;90.80;;;;;;4982631;28;20077;-52
2021/09/04 08:10:58;;;;;;;10.18;4.72;;;15.30;90.40;;;;;;4986633;28;20140;-56
2021/09/04 08:13:24;;;;;;;12.00;4.38;;;15.20;90.70;;;;;;4991843;28;20038;-55
2021/09/04 08:15:51;;;;;;;9.88;4.72;;;15.20;90.20;;;;;;4986487;28;20497;-51
2021/09/04 08:18:17;;;;;;;10.90;4.82;;;15.30;90.30;;;;;;4991022;28;20042;-50
2021/09/04 08:20:43;;;;;;;11.57;4.95;;;15.30;90.20;;;;;;4987772;28;20096;-52
2021/09/04 08:23:09;;;;;;;8.27;4.35;;;15.30;90.20;;;;;;4969389;28;20038;-51
2021/09/04 08:25:36;;;;;;;11.30;4.75;;;15.30;90.10;;;;;;4965177;28;20089;-50
2021/09/04 08:28:06;;;;;;;9.20;4.30;;;15.40;90.10;;;;;;4984312;28;20432;-50
2021/09/04 08:30:32;;;;;;;10.52;5.72;;;15.50;90.00;;;;;;4986654;28;20112;-52
2021/09/04 08:32:58;;;;;;;8.45;4.07;;;15.50;90.00;;;;;;4987012;28;20137;-54
2021/09/04 08:35:23;;;;;;;9.50;4.05;;;15.50;89.40;;;;;;4989958;28;20081;-50
2021/09/04 08:37:52;;;;;;;8.05;4.10;;;15.60;88.60;;;;;;4990966;28;20034;-50
2021/09/04 08:40:18;;;;;;;7.68;4.22;;;15.60;88.80;;;;;;4989491;28;20081;-49
2021/09/04 08:42:44;;;;;;;11.77;3.85;;;15.60;88.00;;;;;;4996255;28;20034;-51
2021/09/04 08:45:10;;;;;;;9.98;4.30;;;15.70;88.50;;;;;;4991669;28;20038;-52
2021/09/04 08:47:36;;;;;;;11.30;4.55;;;15.70;87.80;;;;;;4955382;28;20517;-52
2021/09/04 08:50:02;;;;;;;9.73;4.40;;;15.70;87.90;;;;;;4988649;28;20136;-50
2021/09/04 08:52:28;;;;;;;9.45;4.35;;;15.70;89.00;;;;;;4991850;28;20049;-50
2021/09/04 08:54:54;;;;;;;10.25;4.18;;;15.70;89.50;;;;;;4990829;28;20041;-52
2021/09/04 08:57:20;;;;;;;9.70;4.30;;;15.70;88.20;;;;;;4971316;28;20097;-57
2021/09/04 08:59:50;;;;;;;10.77;4.30;;;15.80;88.70;;;;;;4988789;28;20034;-50
2021/09/04 09:02:16;;;;;;;10.52;4.40;;;15.90;87.30;;;;;;4978983;28;20446;-50
2021/09/04 09:04:48;;;;;;;9.98;4.22;;;15.90;87.50;;;;;;4982010;28;20035;-50
2021/09/04 09:07:19;;;;;;;9.63;4.03;;;15.90;86.90;;;;;;4988035;28;20130;-53
2021/09/04 09:09:44;;;;;;;9.45;4.50;;;15.90;85.80;;;;;;4991321;28;20046;-51
2021/09/04 09:12:12;;;;;;;7.47;4.18;;;15.90;86.80;;;;;;4992251;28;20030;-52
2021/09/04 09:14:55;;;;;;;11.07;4.72;;;15.90;87.30;;;;;;4984096;28;20053;-53
2021/09/04 09:17:24;;;;;;;9.75;3.92;;;15.90;88.00;;;;;;4982082;28;20046;-53
2021/09/04 09:19:54;;;;;;;8.98;3.70;;;15.90;88.00;;;;;;4981878;28;20038;-55
2021/09/04 09:22:20;;;;;;;8.23;4.35;;;16.00;87.20;;;;;;4991366;28;20038;-53
2021/09/04 09:24:45;;;;;;;13.25;4.68;;;16.10;87.10;;;;;;4992952;28;20049;-51
2021/09/04 09:27:14;;;;;;;16.02;4.38;;;16.10;86.10;;;;;;4999767;28;20050;-52
2021/09/04 09:29:48;;;;;;;8.57;4.35;;;16.10;85.80;;;;;;4990188;28;20030;-51
2021/09/04 09:32:14;;;;;;;13.38;5.00;;;16.10;86.80;;;;;;4991520;28;20045;-52
2021/09/04 09:34:50;;;;;;;12.32;4.70;;;16.20;88.10;;;;;;4990831;28;20410;-54
2021/09/04 09:37:16;;;;;;;11.95;3.92;;;16.40;86.00;;;;;;4987514;28;20406;-55
2021/09/04 09:39:44;;;;;;;8.45;4.57;;;16.70;85.80;;;;;;4994646;28;20038;-55
2021/09/04 09:42:12;;;;;;;10.55;3.95;;;16.80;85.40;;;;;;4974998;28;20061;-55
2021/09/04 09:44:39;;;;;;;7.82;4.38;;;16.80;85.70;;;;;;4988380;28;20038;-57
2021/09/04 09:47:09;;;;;;;7.95;4.30;;;16.90;85.70;;;;;;4989897;28;20411;-56
2021/09/04 09:49:43;;;;;;;9.13;4.47;;;16.90;85.80;;;;;;4984370;28;20039;-55
2021/09/04 09:52:14;;;;;;;9.00;3.78;;;17.00;84.60;;;;;;4988918;28;20428;-56
2021/09/04 09:54:40;;;;;;;11.48;4.47;;;16.90;85.30;;;;;;4991642;28;20046;-56
2021/09/04 09:57:10;;;;;;;9.70;3.60;;;16.90;85.60;;;;;;4986009;28;20046;-54
2021/09/04 09:59:37;;;;;;;10.20;4.40;;;16.90;86.30;;;;;;4985636;28;20043;-54
2021/09/04 10:02:12;;;;;;;8.45;4.53;;;16.90;85.00;;;;;;4985376;28;20554;-54
2021/09/04 10:04:39;;;;;;;9.82;4.72;;;16.90;85.30;;;;;;4973567;28;20050;-53
2021/09/04 10:07:08;;;;;;;8.65;4.68;;;16.90;85.80;;;;;;4988377;28;20463;-55
2021/09/04 10:09:39;;;;;;;10.43;4.40;;;16.90;84.90;;;;;;4993568;28;20038;-55
2021/09/04 10:12:05;;;;;;;10.85;4.65;;;16.90;84.90;;;;;;4993294;28;20053;-55
2021/09/04 10:14:31;;;;;;;11.52;4.28;;;17.00;82.90;;;;;;4943828;28;20093;-55
2021/09/04 10:17:00;;;;;;;9.90;4.28;;;17.00;84.50;;;;;;4965556;28;20038;-55
2021/09/04 10:19:31;;;;;;;12.32;4.13;;;17.20;84.10;;;;;;4976116;28;20495;-55
2021/09/04 10:22:02;;;;;;;7.85;3.60;;;17.40;85.20;;;;;;4987816;28;20063;-57
2021/09/04 10:24:43;;;;;;;8.90;3.88;;;17.70;82.60;;;;;;4972992;28;20124;-55
2021/09/04 10:27:11;;;;;;;9.13;4.20;;;17.70;81.70;;;;;;4969459;28;20054;-57
2021/09/04 10:29:48;;;;;;;8.13;3.85;;;17.70;81.60;;;;;;4965853;28;20546;-54
2021/09/04 10:32:17;;;;;;;8.13;3.75;;;17.80;81.10;;;;;;4942422;28;20043;-55
2021/09/04 10:34:45;;;;;;;8.05;4.15;;;17.60;81.30;;;;;;4990870;28;20041;-56
2021/09/04 10:37:13;;;;;;;9.70;3.90;;;17.50;82.60;;;;;;4977086;28;20129;-55
2021/09/04 10:39:48;;;;;;;7.72;3.72;;;17.50;81.70;;;;;;4974672;28;20065;-56
2021/09/04 10:42:33;;;;;;;7.57;3.72;;;17.40;81.40;;;;;;4973642;28;20053;-56
2021/09/04 10:45:06;;;;;;;11.35;3.97;;;17.40;82.60;;;;;;4991021;28;20046;-56
2021/09/04 10:47:44;;;;;;;;;;;17.50;82.30;;;;;;4979054;28;20038;-56
2021/09/04 10:50:31;;;;;;;8.18;3.90;;;17.50;80.40;;;;;;4976062;28;19917;-55
2021/09/04 10:53:04;;;;;;;12.02;4.00;;;17.50;81.70;;;;;;4977399;28;20096;-55
2021/09/04 10:55:38;;;;;;;9.05;3.72;;;17.50;82.40;;;;;;4965573;28;20049;-56
2021/09/04 10:58:07;;;;;;;11.13;3.90;;;17.70;82.60;;;;;;4989881;28;20045;-57
2021/09/04 11:00:41;;;;;;;10.68;4.00;;;17.90;80.80;;;;;;4976454;28;20046;-55
2021/09/04 11:03:17;;;;;;;7.75;3.78;;;17.90;80.80;;;;;;4994231;28;20030;-56
2021/09/04 11:05:59;;;;;;;6.03;3.80;;;17.90;80.70;;;;;;4981617;28;20048;-57
2021/09/04 11:08:43;;;;;;;12.50;3.87;;;17.90;80.70;;;;;;4995199;28;20038;-56
2021/09/04 11:11:28;;;;;;;6.72;3.70;;;17.90;80.90;;;;;;4975397;28;20446;-56
2021/09/04 11:13:56;;;;;;;9.52;4.35;;;17.90;80.10;;;;;;4989770;28;20034;-55
2021/09/04 11:16:39;;;;;;;9.50;3.78;;;17.90;80.80;;;;;;4971667;28;20111;-56
2021/09/04 11:19:31;;;;;;;7.38;3.83;;;18.00;81.40;;;;;;4992174;28;20064;-56
2021/09/04 11:22:14;;;;;;;7.28;4.13;;;18.30;79.00;;;;;;4987206;28;20070;-57
2021/09/04 11:24:44;;;;;;;7.00;3.90;;;18.40;78.20;;;;;;4978116;28;20073;-56
2021/09/04 11:27:28;;;;;;;8.05;3.45;;;18.50;79.60;;;;;;4988817;28;20047;-57
2021/09/04 11:29:54;;;;;;;6.75;3.60;;;18.60;78.70;;;;;;4962151;28;20038;-58
2021/09/04 11:32:24;;;;;;;8.65;3.60;;;18.70;77.80;;;;;;4974904;28;20060;-56
2021/09/04 11:35:04;;;;;;;10.93;3.60;;;18.80;77.30;;;;;;4955930;28;20388;-58
2021/09/04 11:37:35;;;;;;;8.88;4.53;;;18.90;76.20;;;;;;4989732;28;20039;-57
2021/09/04 11:40:01;;;;;;;8.63;4.50;;;19.00;74.60;;;;;;4993643;28;20495;-55
2021/09/04 11:42:32;;;;;;;9.73;4.32;;;18.90;75.30;;;;;;4992494;28;20101;-58
2021/09/04 11:45:06;;;;;;;8.98;4.18;;;18.90;75.60;;;;;;4991025;28;20061;-56
2021/09/04 11:47:37;;;;;;;10.35;4.43;;;19.00;76.70;;;;;;4992963;28;20227;-55
2021/09/04 11:50:06;;;;;;;11.45;4.38;;;19.10;75.30;;;;;;4989524;28;22104;-55
2021/09/04 11:52:40;;;;;;;8.35;4.07;;;19.10;75.70;;;;;;4976573;28;20046;-55
2021/09/04 11:55:16;;;;;;;11.82;4.38;;;19.10;76.50;;;;;;4990379;28;20125;-56
2021/09/04 11:57:45;;;;;;;9.25;4.22;;;19.20;75.90;;;;;;4959760;28;20463;-55
2021/09/04 12:00:21;;;;;;;9.73;4.05;;;19.30;74.00;;;;;;4957994;28;20042;-55
2021/09/04 12:02:47;;;;;;;7.78;4.60;;;19.20;75.20;;;;;;4958859;28;20415;-57
2021/09/04 12:05:14;;;;;;;7.80;4.40;;;19.30;76.10;;;;;;4976315;28;20038;-55
2021/09/04 12:07:41;;;;;;;10.98;4.70;;;19.30;75.50;;;;;;4975978;28;20046;-55
2021/09/04 12:10:08;;;;;;;11.23;5.03;;;19.40;74.90;;;;;;4958601;28;20084;-57
2021/09/04 12:12:35;;;;;;;9.02;5.10;;;19.40;75.40;;;;;;4965452;28;20503;-55
2021/09/04 12:15:02;;;;;;;7.47;3.92;;;19.60;74.00;;;;;;4957635;28;20042;-56
2021/09/04 12:17:28;;;;;;;8.10;4.63;;;19.60;73.70;;;;;;4963423;28;20046;-54
2021/09/04 12:19:54;;;;;;;10.50;4.95;;;19.60;74.90;;;;;;4993349;28;20380;-55
2021/09/04 12:22:33;;;;;;;15.30;5.82;;;19.60;76.20;;;;;;4992140;28;20040;-55
2021/09/04 12:24:59;;;;;;;14.52;5.50;;;19.70;74.30;;;;;;4993887;28;20026;-53
2021/09/04 12:27:39;;;;;;;9.90;4.78;;;19.70;75.10;;;;;;4979171;28;20534;-55
2021/09/04 12:30:06;;;;;;;9.00;5.03;;;19.80;75.30;;;;;;4979428;28;20042;-52
2021/09/04 12:32:36;;;;;;;10.98;5.53;;;19.80;75.40;;;;;;4968343;28;20129;-54
2021/09/04 12:35:03;;;;;;;12.50;5.32;;;19.80;74.80;;;;;;4996282;28;20050;-56
2021/09/04 12:37:30;;;;;;;10.75;5.32;;;19.80;75.00;;;;;;4996603;28;20544;-54
2021/09/04 12:40:10;;;;;;;10.90;5.20;;;19.90;73.90;;;;;;4997966;28;20030;-56